Time;durP1;ratioP1;P1;durP2;ratioP2;P2;SDS_P1;SDS_P2;PMS_P1;PMS_P2;Temp;Humidity;BMP_temperature;BMP_pressure;BME280_temperature;BME280_humidity;BME280_pressure;Samples;Min_cycle;Max_cycle;Signal;HPM_P1;HPM_P2
2021/12/26 00:00:32;;;;;;;21.40;13.75;;;-5.00;99.90;;;;;;5033770;28;20084;-84
2021/12/26 00:03:00;;;;;;;18.15;12.43;;;-5.00;99.90;;;;;;5034431;28;20056;-84
2021/12/26 00:05:28;;;;;;;22.30;14.52;;;-5.00;99.90;;;;;;5037478;28;20056;-84
2021/12/26 00:07:55;;;;;;;28.52;16.25;;;-5.00;99.90;;;;;;5038402;28;20495;-85
2021/12/26 00:10:25;;;;;;;26.05;16.20;;;-5.00;99.90;;;;;;5037573;28;20095;-84
2021/12/26 00:12:52;;;;;;;21.80;14.40;;;-5.10;99.90;;;;;;5054406;28;20132;-84
2021/12/26 00:15:19;;;;;;;42.90;24.00;;;-5.20;99.90;;;;;;5037380;28;20480;-84
2021/12/26 00:17:46;;;;;;;30.45;17.70;;;-5.30;99.90;;;;;;5037679;28;20046;-85
2021/12/26 00:20:14;;;;;;;43.53;25.45;;;-5.40;99.90;;;;;;5037295;28;20733;-84
2021/12/26 00:22:42;;;;;;;31.08;19.08;;;-5.40;99.90;;;;;;5036542;28;20089;-84
2021/12/26 00:25:11;;;;;;;36.95;21.40;;;-5.30;99.90;;;;;;5036527;28;20046;-84
2021/12/26 00:27:39;;;;;;;28.13;17.30;;;-5.30;99.90;;;;;;5036415;28;20674;-84
2021/12/26 00:30:13;;;;;;;28.20;18.20;;;-5.30;99.90;;;;;;5037460;28;20141;-84
2021/12/26 00:32:41;;;;;;;33.13;18.85;;;-5.30;99.90;;;;;;5036092;28;20133;-84
2021/12/26 00:35:10;;;;;;;33.55;19.67;;;-5.20;99.90;;;;;;5037007;28;20084;-84
2021/12/26 00:37:37;;;;;;;28.02;17.48;;;-5.20;99.90;;;;;;5020215;28;20155;-84
2021/12/26 00:40:05;;;;;;;30.65;16.98;;;-5.20;99.90;;;;;;5019617;28;20049;-84
2021/12/26 00:42:31;;;;;;;45.25;25.58;;;-5.40;99.90;;;;;;5019793;28;20049;-84
2021/12/26 00:44:58;;;;;;;49.55;27.20;;;-5.40;99.90;;;;;;5036916;28;20088;-84
2021/12/26 00:47:29;;;;;;;31.67;17.67;;;-5.30;99.90;;;;;;5019053;28;20053;-84
2021/12/26 00:49:57;;;;;;;44.13;24.25;;;-5.50;99.90;;;;;;5018707;28;20452;-84
2021/12/26 00:52:24;;;;;;;42.38;23.38;;;-5.50;99.90;;;;;;5018776;28;20091;-84
2021/12/26 00:54:50;;;;;;;38.92;21.38;;;-5.30;99.90;;;;;;5018807;28;20120;-85
2021/12/26 00:57:17;;;;;;;44.00;22.52;;;-5.20;99.90;;;;;;5018915;28;20053;-84
2021/12/26 00:59:44;;;;;;;47.95;25.23;;;-5.40;99.90;;;;;;5019038;28;20080;-84
2021/12/26 01:02:12;;;;;;;38.13;20.67;;;-5.50;99.90;;;;;;5038626;28;20100;-84
2021/12/26 01:04:39;;;;;;;33.63;19.20;;;-5.50;99.90;;;;;;5021317;28;20096;-84
2021/12/26 01:07:16;;;;;;;30.73;17.52;;;-5.30;99.90;;;;;;5020845;28;20558;-85
2021/12/26 01:09:46;;;;;;;26.60;16.35;;;-5.20;99.90;;;;;;5021034;28;20061;-85
2021/12/26 01:12:14;;;;;;;32.97;17.08;;;-5.30;99.90;;;;;;5020913;28;20148;-85
2021/12/26 01:14:48;;;;;;;28.42;16.60;;;-5.30;99.90;;;;;;5019536;28;20455;-84
2021/12/26 01:17:19;;;;;;;28.70;17.00;;;-5.30;99.90;;;;;;5038462;28;20085;-84
2021/12/26 01:19:50;;;;;;;29.55;16.95;;;-5.40;99.90;;;;;;5020204;28;20141;-84
2021/12/26 01:22:18;;;;;;;28.20;17.20;;;-5.50;99.90;;;;;;5019446;28;20049;-85
2021/12/26 01:24:48;;;;;;;26.55;16.15;;;-5.60;99.90;;;;;;5020011;28;20095;-85
2021/12/26 01:27:15;;;;;;;32.53;17.15;;;-5.60;99.90;;;;;;5019871;28;20053;-85
2021/12/26 01:29:41;;;;;;;29.88;17.10;;;-5.50;99.90;;;;;;5019703;28;20529;-84
2021/12/26 01:32:08;;;;;;;27.10;15.85;;;-5.40;99.90;;;;;;5036947;28;20057;-84
2021/12/26 01:34:35;;;;;;;28.45;16.35;;;-5.40;99.90;;;;;;5026426;28;20071;-84
2021/12/26 01:37:02;;;;;;;27.75;17.02;;;-5.30;99.90;;;;;;5036116;28;20042;-84
2021/12/26 01:39:29;;;;;;;31.30;18.02;;;-5.30;99.90;;;;;;5036385;28;20117;-84
2021/12/26 01:42:01;;;;;;;26.38;16.48;;;-5.40;99.90;;;;;;5035538;28;20128;-84
2021/12/26 01:44:30;;;;;;;28.42;17.10;;;-5.40;99.90;;;;;;5036127;28;20495;-85
2021/12/26 01:46:57;;;;;;;26.65;17.17;;;-5.50;99.90;;;;;;5036163;28;20049;-84
2021/12/26 01:49:27;;;;;;;30.30;18.02;;;-5.60;99.90;;;;;;5035892;28;20053;-85
2021/12/26 01:51:58;;;;;;;30.52;18.40;;;-5.70;99.90;;;;;;5035945;28;20096;-84
2021/12/26 01:54:39;;;;;;;32.08;18.75;;;-5.80;99.90;;;;;;5035839;28;20087;-84
2021/12/26 01:57:10;;;;;;;34.63;19.35;;;-5.80;99.90;;;;;;5036813;28;20045;-85
2021/12/26 01:59:39;;;;;;;31.10;18.45;;;-5.90;99.90;;;;;;5035983;28;20045;-84
2021/12/26 02:02:07;;;;;;;34.08;18.75;;;-5.90;99.90;;;;;;5035841;28;20045;-84
2021/12/26 02:04:37;;;;;;;32.95;17.92;;;-5.90;99.90;;;;;;5035743;28;20123;-85
2021/12/26 02:07:05;;;;;;;31.33;18.10;;;-5.90;99.90;;;;;;5035450;28;20144;-84
2021/12/26 02:09:32;;;;;;;33.45;18.30;;;-6.00;99.90;;;;;;5052303;28;20103;-84
2021/12/26 02:12:00;;;;;;;32.67;19.25;;;-6.00;99.90;;;;;;5052238;28;20079;-84
2021/12/26 02:14:27;;;;;;;34.60;19.42;;;-6.00;99.90;;;;;;5035709;28;20081;-85
2021/12/26 02:16:56;;;;;;;33.50;19.17;;;-6.10;99.90;;;;;;5035153;28;20107;-84
2021/12/26 02:19:23;;;;;;;35.17;20.67;;;-6.00;99.90;;;;;;5034587;28;20069;-84
2021/12/26 02:24:24;;;;;;;34.92;19.20;;;-6.10;99.90;;;;;;5036738;28;20107;-84
2021/12/26 02:29:40;;;;;;;29.33;17.23;;;-6.10;99.90;;;;;;5037016;28;20137;-84
2021/12/26 02:32:08;;;;;;;32.13;17.92;;;-6.20;99.90;;;;;;5034837;28;20137;-85
2021/12/26 02:34:35;;;;;;;35.47;19.40;;;-6.10;99.90;;;;;;5034390;28;20140;-84
2021/12/26 02:37:02;;;;;;;32.78;18.67;;;-6.20;99.90;;;;;;5034655;28;20050;-84
2021/12/26 02:39:32;;;;;;;32.63;18.55;;;-6.10;99.90;;;;;;5035730;28;20046;-84
2021/12/26 02:42:00;;;;;;;36.75;18.02;;;-6.20;99.90;;;;;;5034002;28;20081;-85
2021/12/26 02:44:27;;;;;;;31.90;17.58;;;-6.20;99.90;;;;;;5034193;28;20053;-84
2021/12/26 02:46:53;;;;;;;33.13;18.35;;;-6.20;99.90;;;;;;5035099;28;20094;-84
2021/12/26 02:49:25;;;;;;;33.50;18.60;;;-6.30;99.90;;;;;;5034348;28;20045;-84
2021/12/26 02:51:54;;;;;;;31.45;18.20;;;-6.30;99.90;;;;;;5034143;28;20507;-84
2021/12/26 02:54:25;;;;;;;35.35;18.92;;;-6.40;99.90;;;;;;5034482;28;20072;-84
2021/12/26 02:56:54;;;;;;;34.55;18.75;;;-6.30;99.90;;;;;;5034354;28;20041;-85
2021/12/26 02:59:21;;;;;;;32.58;18.30;;;-6.30;99.90;;;;;;5034329;28;20132;-85
2021/12/26 03:01:47;;;;;;;33.22;18.95;;;-6.30;99.90;;;;;;5034846;28;20045;-85
2021/12/26 03:04:14;;;;;;;36.70;20.23;;;-6.40;99.90;;;;;;5050596;28;20123;-84
2021/12/26 03:07:02;;;;;;;38.38;19.60;;;-6.40;99.90;;;;;;5033828;28;20088;-85
2021/12/26 03:09:33;;;;;;;40.58;19.40;;;-6.50;99.90;;;;;;5036940;28;20132;-86
2021/12/26 03:12:00;;;;;;;37.97;19.45;;;-6.50;99.90;;;;;;5037793;28;20076;-86
2021/12/26 03:14:29;;;;;;;37.65;19.75;;;-6.50;99.90;;;;;;5037500;28;20128;-84
2021/12/26 03:17:00;;;;;;;35.78;19.23;;;-6.50;99.90;;;;;;5051114;28;20491;-84
2021/12/26 03:19:34;;;;;;;36.78;19.52;;;-6.40;99.90;;;;;;5036459;28;20060;-85
2021/12/26 03:22:01;;;;;;;38.42;19.33;;;-6.40;99.90;;;;;;5034850;28;20058;-85
2021/12/26 03:24:28;;;;;;;33.58;19.15;;;-6.40;99.90;;;;;;5035029;28;20053;-84
2021/12/26 03:27:05;;;;;;;36.65;19.90;;;-6.40;99.90;;;;;;5035777;28;20050;-86
2021/12/26 03:29:33;;;;;;;31.60;19.13;;;-6.40;99.90;;;;;;5053332;22;20488;-79
2021/12/26 03:32:00;;;;;;;35.47;19.27;;;-6.40;99.90;;;;;;5056462;28;20080;-79
2021/12/26 03:34:27;;;;;;;34.03;18.52;;;-6.40;99.90;;;;;;5056951;28;20140;-80
2021/12/26 03:36:56;;;;;;;36.60;19.58;;;-6.30;99.90;;;;;;5056016;28;20596;-80
2021/12/26 03:39:24;;;;;;;34.60;19.08;;;-6.30;99.90;;;;;;5054265;28;20131;-79
2021/12/26 03:41:51;;;;;;;37.92;18.92;;;-6.30;99.90;;;;;;5077314;22;20044;-80
2021/12/26 03:44:18;;;;;;;36.72;19.80;;;-6.30;99.90;;;;;;5093368;28;20131;-80
2021/12/26 03:46:44;;;;;;;31.77;18.23;;;-6.20;99.90;;;;;;5093313;28;20051;-80
2021/12/26 03:49:11;;;;;;;35.97;19.92;;;-6.10;99.90;;;;;;5075570;28;20145;-80
2021/12/26 03:51:38;;;;;;;41.83;20.70;;;-6.20;99.90;;;;;;5093439;28;20058;-80
2021/12/26 03:54:06;;;;;;;40.50;20.38;;;-6.30;99.90;;;;;;5093189;28;20131;-80
2021/12/26 03:56:33;;;;;;;42.55;21.42;;;-6.40;99.90;;;;;;5075433;28;20108;-80
2021/12/26 03:59:00;;;;;;;48.78;21.92;;;-6.30;99.90;;;;;;5075210;28;20080;-80
2021/12/26 04:01:27;;;;;;;38.95;19.80;;;-6.30;99.90;;;;;;5093061;28;20048;-80
2021/12/26 04:03:54;;;;;;;39.00;19.25;;;-6.30;99.90;;;;;;5093300;28;20576;-80
2021/12/26 04:06:21;;;;;;;38.17;20.25;;;-6.20;99.90;;;;;;5075465;28;20075;-80
2021/12/26 04:08:47;;;;;;;48.13;21.52;;;-6.10;99.90;;;;;;5093025;28;20159;-80
2021/12/26 04:11:14;;;;;;;37.55;19.02;;;-6.10;99.90;;;;;;5093277;28;20143;-79
2021/12/26 04:13:41;;;;;;;41.67;20.73;;;-6.00;99.90;;;;;;5075194;28;20054;-80
2021/12/26 04:16:08;;;;;;;41.40;21.80;;;-5.90;99.90;;;;;;5074984;28;20090;-80
2021/12/26 04:18:34;;;;;;;40.90;20.38;;;-6.10;99.90;;;;;;5075374;28;20052;-80
2021/12/26 04:21:02;;;;;;;38.13;19.40;;;-6.10;99.90;;;;;;5075205;28;20062;-80
2021/12/26 04:23:29;;;;;;;41.45;20.02;;;-6.20;99.90;;;;;;5075073;28;20048;-80
2021/12/26 04:25:55;;;;;;;38.33;20.20;;;-6.20;99.90;;;;;;5074975;28;20052;-80
2021/12/26 04:28:22;;;;;;;36.40;19.60;;;-6.30;99.90;;;;;;5093428;28;20448;-80
2021/12/26 04:30:51;;;;;;;41.13;19.50;;;-6.30;99.90;;;;;;5076002;28;20048;-80
2021/12/26 04:33:18;;;;;;;38.45;19.40;;;-6.30;99.90;;;;;;5075390;28;20052;-80
2021/12/26 04:35:44;;;;;;;39.83;19.80;;;-6.20;99.90;;;;;;5076774;28;20140;-80
2021/12/26 04:38:11;;;;;;;60.70;31.08;;;-6.10;99.90;;;;;;5077190;28;20123;-80
2021/12/26 04:40:38;;;;;;;48.17;22.35;;;-6.20;99.90;;;;;;5077398;28;20072;-80
2021/12/26 04:43:05;;;;;;;43.00;23.33;;;-6.20;99.90;;;;;;5095180;28;20131;-80
2021/12/26 04:45:32;;;;;;;47.88;24.75;;;-6.20;99.90;;;;;;5077946;28;20131;-80
2021/12/26 04:48:01;;;;;;;36.65;19.02;;;-6.10;99.90;;;;;;5078141;28;20105;-80
2021/12/26 04:50:29;;;;;;;43.47;20.67;;;-6.00;99.90;;;;;;5081343;28;20142;-80
2021/12/26 04:52:56;;;;;;;43.33;22.70;;;-5.90;99.90;;;;;;5099527;28;20134;-80
2021/12/26 04:55:26;;;;;;;39.40;21.05;;;-6.00;99.90;;;;;;5081954;28;20127;-80
2021/12/26 04:57:52;;;;;;;51.00;26.80;;;-6.00;99.90;;;;;;5081880;28;20116;-80
2021/12/26 05:00:24;;;;;;;37.45;19.30;;;-5.90;99.90;;;;;;5100098;28;20458;-80
2021/12/26 05:02:51;;;;;;;56.57;34.87;;;-6.00;99.90;;;;;;5082195;28;20044;-80
2021/12/26 05:05:19;;;;;;;42.47;22.63;;;-5.90;99.90;;;;;;5082034;28;20306;-80
2021/12/26 05:07:46;;;;;;;33.55;19.00;;;-5.90;99.90;;;;;;5082262;28;20130;-80
2021/12/26 05:10:15;;;;;;;88.85;71.32;;;-5.90;99.90;;;;;;5082224;28;20056;-80
2021/12/26 05:12:42;;;;;;;39.33;23.95;;;-5.80;99.90;;;;;;5082119;28;20441;-80
2021/12/26 05:15:12;;;;;;;44.60;25.80;;;-5.90;99.90;;;;;;5082156;28;20078;-80
2021/12/26 05:17:44;;;;;;;47.63;26.50;;;-5.90;99.90;;;;;;5083442;28;20055;-80
2021/12/26 05:20:12;;;;;;;38.72;20.67;;;-5.90;99.90;;;;;;5100883;28;20104;-80
2021/12/26 05:22:39;;;;;;;38.88;20.98;;;-5.90;99.90;;;;;;5082060;28;20097;-80
2021/12/26 05:25:07;;;;;;;41.72;20.80;;;-5.90;99.90;;;;;;5101214;28;20070;-80
2021/12/26 05:27:34;;;;;;;35.90;19.10;;;-5.90;99.90;;;;;;5083050;28;20106;-80
2021/12/26 05:30:02;;;;;;;41.83;23.05;;;-5.80;99.90;;;;;;5083188;28;20095;-80
2021/12/26 05:32:28;;;;;;;40.10;20.15;;;-5.80;99.90;;;;;;5102946;28;20131;-80
2021/12/26 05:34:55;;;;;;;40.35;18.85;;;-5.80;99.90;;;;;;5083803;28;20067;-80
2021/12/26 05:37:22;;;;;;;38.08;18.63;;;-5.80;99.90;;;;;;5083065;28;20138;-80
2021/12/26 05:39:48;;;;;;;40.05;22.95;;;-5.80;99.90;;;;;;5082769;28;20123;-80
2021/12/26 05:42:16;;;;;;;34.65;18.42;;;-5.80;99.90;;;;;;5101518;28;20052;-80
2021/12/26 05:44:43;;;;;;;43.17;24.35;;;-5.90;99.90;;;;;;5101367;28;20076;-80
2021/12/26 05:47:10;;;;;;;40.13;23.73;;;-5.90;99.90;;;;;;5101987;28;20140;-81
2021/12/26 05:49:37;;;;;;;36.63;17.73;;;-5.80;99.90;;;;;;5083976;28;20059;-80
2021/12/26 05:52:05;;;;;;;37.88;19.27;;;-5.80;99.90;;;;;;5083587;28;20493;-80
2021/12/26 05:54:32;;;;;;;35.63;19.98;;;-5.80;99.90;;;;;;5102284;28;20500;-80
2021/12/26 05:57:00;;;;;;;35.55;18.33;;;-5.80;99.90;;;;;;5087992;28;20123;-80
2021/12/26 05:59:27;;;;;;;33.28;18.42;;;-5.80;99.90;;;;;;5105731;28;20159;-80
2021/12/26 06:01:53;;;;;;;36.45;18.48;;;-5.90;99.90;;;;;;5087563;28;20104;-80
2021/12/26 06:04:20;;;;;;;36.75;17.52;;;-5.90;99.90;;;;;;5098479;28;20044;-80
2021/12/26 06:06:47;;;;;;;34.65;18.52;;;-5.80;99.90;;;;;;5096444;28;20048;-80
2021/12/26 06:09:14;;;;;;;34.90;18.15;;;-5.90;99.90;;;;;;5096119;28;20132;-80
2021/12/26 06:11:40;;;;;;;36.78;17.65;;;-5.90;99.90;;;;;;5077930;28;20127;-80
2021/12/26 06:14:07;;;;;;;34.45;17.48;;;-5.90;99.90;;;;;;5077988;28;20408;-80
2021/12/26 06:16:34;;;;;;;35.08;19.00;;;-5.90;99.90;;;;;;5077597;28;20143;-80
2021/12/26 06:19:01;;;;;;;37.08;18.02;;;-5.90;99.90;;;;;;5077419;28;20048;-80
2021/12/26 06:21:28;;;;;;;35.30;18.05;;;-6.00;99.90;;;;;;5077709;28;20128;-81
2021/12/26 06:23:54;;;;;;;32.05;17.33;;;-5.90;99.90;;;;;;5077324;28;20052;-80
2021/12/26 06:26:23;;;;;;;35.95;18.00;;;-5.80;99.90;;;;;;5095752;28;20109;-80
2021/12/26 06:28:50;;;;;;;33.78;17.08;;;-5.90;99.90;;;;;;5077447;28;20484;-80
2021/12/26 06:31:17;;;;;;;36.47;18.60;;;-5.90;99.90;;;;;;5095345;28;20278;-79
2021/12/26 06:33:46;;;;;;;37.22;18.58;;;-5.80;99.90;;;;;;5077203;28;20048;-80
2021/12/26 06:36:14;;;;;;;30.70;17.63;;;-5.90;99.90;;;;;;5077381;28;20040;-80
2021/12/26 06:38:44;;;;;;;35.20;17.15;;;-5.80;99.90;;;;;;5095775;28;20127;-80
2021/12/26 06:41:12;;;;;;;34.78;17.83;;;-5.80;99.90;;;;;;5077223;28;20056;-80
2021/12/26 06:43:39;;;;;;;35.30;17.08;;;-5.80;99.90;;;;;;5095602;28;20051;-80
2021/12/26 06:46:07;;;;;;;36.33;18.67;;;-5.70;99.90;;;;;;5095233;28;20064;-80
2021/12/26 06:48:34;;;;;;;34.58;18.52;;;-5.70;99.90;;;;;;5077621;28;20048;-80
2021/12/26 06:51:02;;;;;;;35.05;17.88;;;-5.80;99.90;;;;;;5077768;28;20083;-80
2021/12/26 06:53:28;;;;;;;38.28;18.83;;;-5.70;99.90;;;;;;5095492;28;20058;-80
2021/12/26 06:55:55;;;;;;;33.75;17.52;;;-5.70;99.90;;;;;;5095200;28;20088;-80
2021/12/26 06:58:22;;;;;;;35.63;18.55;;;-5.70;99.90;;;;;;5077118;28;20046;-80
2021/12/26 07:00:49;;;;;;;35.50;19.02;;;-5.70;99.90;;;;;;5077562;28;20419;-80
2021/12/26 07:03:16;;;;;;;32.30;17.70;;;-5.80;99.90;;;;;;5077016;28;20087;-80
2021/12/26 07:05:43;;;;;;;37.72;18.55;;;-5.70;99.90;;;;;;5076832;28;20131;-80
2021/12/26 07:08:10;;;;;;;35.00;18.35;;;-5.70;99.90;;;;;;5078047;28;20135;-80
2021/12/26 07:10:36;;;;;;;34.92;19.67;;;-5.70;99.90;;;;;;5076829;28;20090;-80
2021/12/26 07:13:05;;;;;;;41.03;20.67;;;-5.60;99.90;;;;;;5075718;28;20152;-80
2021/12/26 07:15:32;;;;;;;33.70;17.85;;;-5.50;99.90;;;;;;5094619;28;20126;-80
2021/12/26 07:17:59;;;;;;;68.00;35.67;;;-5.40;99.90;;;;;;5094585;28;20536;-80
2021/12/26 07:20:25;;;;;;;36.17;18.95;;;-5.40;99.90;;;;;;5076570;28;20040;-80
2021/12/26 07:22:52;;;;;;;32.88;17.88;;;-5.40;99.90;;;;;;5076470;28;20080;-80
2021/12/26 07:25:19;;;;;;;33.92;18.58;;;-5.30;99.90;;;;;;5076632;28;20047;-80
2021/12/26 07:27:46;;;;;;;31.90;16.58;;;-5.40;99.90;;;;;;5076621;28;20048;-80
2021/12/26 07:30:13;;;;;;;34.08;17.95;;;-5.30;99.90;;;;;;5076848;28;20107;-80
2021/12/26 07:32:40;;;;;;;31.88;16.80;;;-5.10;99.90;;;;;;5095008;28;20127;-80
2021/12/26 07:35:09;;;;;;;33.30;16.80;;;-5.00;99.90;;;;;;5094160;28;20048;-80
2021/12/26 07:37:35;;;;;;;30.27;17.13;;;-4.90;99.90;;;;;;5076803;28;20067;-80
2021/12/26 07:40:05;;;;;;;31.98;17.35;;;-4.80;99.90;;;;;;5077355;28;20514;-80
2021/12/26 07:42:32;;;;;;;33.13;17.95;;;-4.90;99.90;;;;;;5094757;28;20143;-80
2021/12/26 07:44:58;;;;;;;32.25;16.95;;;-5.00;99.90;;;;;;5100055;28;20112;-80
2021/12/26 07:47:25;;;;;;;30.45;16.60;;;-4.90;99.90;;;;;;5078148;28;20075;-81
2021/12/26 07:49:52;;;;;;;31.90;17.35;;;-4.90;99.90;;;;;;5095784;28;20055;-81
2021/12/26 07:52:24;;;;;;;31.08;17.30;;;-4.90;99.90;;;;;;5078576;28;20052;-81
2021/12/26 07:54:50;;;;;;;32.65;17.73;;;-4.80;99.90;;;;;;5078541;28;20131;-81
2021/12/26 07:57:17;;;;;;;33.65;17.25;;;-4.80;99.90;;;;;;5078603;28;20465;-80
2021/12/26 07:59:44;;;;;;;32.22;17.58;;;-4.70;99.90;;;;;;5078341;28;20070;-80
2021/12/26 08:02:17;;;;;;;32.92;19.45;;;-4.60;99.90;;;;;;5095358;28;20094;-80
2021/12/26 08:04:46;;;;;;;35.90;17.58;;;-4.70;99.90;;;;;;5077640;28;20055;-80
2021/12/26 08:07:13;;;;;;;34.28;19.05;;;-4.70;99.90;;;;;;5094881;28;20298;-81
2021/12/26 08:09:40;;;;;;;34.55;19.88;;;-4.80;99.90;;;;;;5077210;28;20044;-80
2021/12/26 08:12:08;;;;;;;34.55;18.67;;;-4.80;99.90;;;;;;5082947;28;20097;-81
2021/12/26 08:14:35;;;;;;;33.60;18.20;;;-4.80;99.90;;;;;;5093233;28;20130;-80
2021/12/26 08:17:02;;;;;;;40.78;21.63;;;-4.70;99.90;;;;;;5109579;28;20054;-80
2021/12/26 08:19:29;;;;;;;36.33;20.55;;;-4.60;99.90;;;;;;5091232;28;20060;-80
2021/12/26 08:21:56;;;;;;;36.25;19.60;;;-4.40;99.90;;;;;;5110986;28;20146;-80
2021/12/26 08:24:25;;;;;;;30.85;17.95;;;-4.30;99.90;;;;;;5117826;28;20607;-80
2021/12/26 08:26:51;;;;;;;29.98;16.38;;;-4.20;99.90;;;;;;5103095;28;20134;-80
2021/12/26 08:29:23;;;;;;;35.60;17.42;;;-4.20;99.90;;;;;;5102767;28;20139;-80
2021/12/26 08:31:55;;;;;;;34.05;19.77;;;-4.20;99.90;;;;;;5102924;28;20043;-80
2021/12/26 08:34:22;;;;;;;52.83;29.88;;;-4.20;99.90;;;;;;5103206;28;20047;-81
2021/12/26 08:37:03;;;;;;;31.45;18.25;;;-4.10;99.90;;;;;;5121527;28;20126;-80
2021/12/26 08:39:34;;;;;;;32.22;17.73;;;-4.10;99.90;;;;;;5102553;28;20446;-81
2021/12/26 08:42:01;;;;;;;32.10;17.23;;;-4.10;99.90;;;;;;5100826;28;20571;-81
2021/12/26 08:44:32;;;;;;;31.42;17.27;;;-4.00;99.90;;;;;;5101794;28;20051;-81
2021/12/26 08:46:59;;;;;;;28.38;16.35;;;-3.90;99.90;;;;;;5101937;28;20083;-81
2021/12/26 08:49:27;;;;;;;29.30;16.42;;;-3.80;99.90;;;;;;5101154;28;20571;-81
2021/12/26 08:51:54;;;;;;;27.25;16.25;;;-3.70;99.90;;;;;;5119174;28;20083;-81
2021/12/26 08:54:22;;;;;;;29.55;16.90;;;-3.60;99.90;;;;;;5119778;28;20052;-81
2021/12/26 08:56:49;;;;;;;28.27;15.63;;;-3.50;99.90;;;;;;5118926;28;20127;-81
2021/12/26 08:59:16;;;;;;;27.15;15.57;;;-3.50;99.90;;;;;;5101050;28;20444;-81
2021/12/26 09:01:45;;;;;;;28.38;15.68;;;-3.40;99.90;;;;;;5115996;28;20078;-81
2021/12/26 09:04:13;;;;;;;27.85;15.88;;;-3.30;99.90;;;;;;5080774;28;20461;-81
2021/12/26 09:06:40;;;;;;;27.10;16.02;;;-3.30;99.90;;;;;;5080434;28;20047;-81
2021/12/26 09:09:10;;;;;;;26.58;15.95;;;-3.20;99.90;;;;;;5080681;28;20058;-81
2021/12/26 09:11:36;;;;;;;25.05;15.38;;;-3.10;99.90;;;;;;5080660;28;20135;-81
2021/12/26 09:14:03;;;;;;;22.00;14.15;;;-3.00;99.90;;;;;;5084387;28;20138;-81
2021/12/26 09:16:34;;;;;;;26.42;15.65;;;-2.90;99.90;;;;;;5087254;28;20131;-81
2021/12/26 09:19:03;;;;;;;25.45;15.30;;;-2.80;99.90;;;;;;5102738;28;20136;-81
2021/12/26 09:21:30;;;;;;;28.50;16.50;;;-2.70;99.90;;;;;;5102069;28;20079;-81
2021/12/26 09:23:57;;;;;;;28.80;16.52;;;-2.70;99.90;;;;;;5102159;28;20047;-81
2021/12/26 09:26:24;;;;;;;25.65;15.65;;;-2.80;99.90;;;;;;5083496;28;20460;-81
2021/12/26 09:28:50;;;;;;;26.67;15.63;;;-2.80;99.90;;;;;;5088012;28;20507;-80
2021/12/26 09:31:17;;;;;;;25.55;15.48;;;-2.80;99.90;;;;;;5109062;28;20078;-81
2021/12/26 09:33:44;;;;;;;25.92;16.50;;;-2.70;99.90;;;;;;5100612;28;20052;-81
2021/12/26 09:36:11;;;;;;;28.13;16.17;;;-2.70;99.90;;;;;;5095786;28;20061;-81
2021/12/26 09:38:38;;;;;;;32.88;17.70;;;-2.70;99.90;;;;;;5094343;28;20043;-81
2021/12/26 09:41:05;;;;;;;28.85;17.40;;;-2.70;99.90;;;;;;5120521;28;20044;-81
2021/12/26 09:43:32;;;;;;;39.88;21.58;;;-2.90;99.90;;;;;;5111257;22;20139;-77
2021/12/26 09:45:58;;;;;;;30.77;17.60;;;-2.70;99.90;;;;;;5078849;28;20597;-75
2021/12/26 09:48:26;;;;;;;26.65;16.02;;;-2.50;99.90;;;;;;5079970;28;20049;-79
2021/12/26 09:50:53;;;;;;;28.23;16.92;;;-2.70;99.90;;;;;;5079519;28;20131;-77
2021/12/26 09:53:20;;;;;;;26.73;16.10;;;-2.50;99.90;;;;;;5079416;28;20486;-76
2021/12/26 09:55:47;;;;;;;28.23;17.23;;;-2.50;99.90;;;;;;5059962;28;20131;-77
2021/12/26 09:58:14;;;;;;;25.33;16.23;;;-2.60;99.90;;;;;;5062238;28;20098;-78
2021/12/26 10:00:44;;;;;;;27.90;18.30;;;-2.50;99.90;;;;;;5068826;28;20108;-78
2021/12/26 10:03:22;;;;;;;26.23;15.90;;;-2.60;99.90;;;;;;5088185;28;20047;-78
2021/12/26 10:06:17;;;;;;;27.75;16.98;;;-2.60;99.90;;;;;;5068535;28;20057;-78
2021/12/26 10:08:55;;;;;;;30.92;17.27;;;-2.50;99.90;;;;;;5068084;28;20053;-78
2021/12/26 10:11:34;;;;;;;30.17;18.38;;;-2.40;99.90;;;;;;5067098;28;20112;-78
2021/12/26 10:14:10;;;;;;;36.88;21.88;;;-2.10;99.90;;;;;;5066242;28;20056;-78
2021/12/26 10:16:43;;;;;;;29.73;19.10;;;-2.00;99.90;;;;;;5083693;28;20083;-79
2021/12/26 10:19:11;;;;;;;27.30;18.02;;;-1.80;99.90;;;;;;5083552;28;20066;-78
2021/12/26 10:21:50;;;;;;;31.92;18.83;;;-1.60;99.90;;;;;;5082760;28;20048;-78
2021/12/26 10:24:28;;;;;;;165.38;117.57;;;-1.50;99.90;;;;;;5064210;28;20055;-79
2021/12/26 10:27:07;;;;;;;56.33;41.75;;;-1.40;99.90;;;;;;5062652;28;20151;-78
2021/12/26 10:29:38;;;;;;;37.13;26.30;;;-1.40;99.90;;;;;;5062973;28;20086;-78
2021/12/26 10:32:05;;;;;;;26.33;17.25;;;-1.20;99.90;;;;;;5080753;28;20127;-79
2021/12/26 10:34:35;;;;;;;23.33;15.40;;;-1.10;99.90;;;;;;5080627;28;20510;-78
2021/12/26 10:37:06;;;;;;;23.63;14.15;;;-0.90;99.90;;;;;;5080116;28;20059;-79
2021/12/26 10:39:40;;;;;;;20.02;12.90;;;-0.70;99.90;;;;;;5069694;28;20051;-80
2021/12/26 10:42:10;;;;;;;18.30;12.20;;;-0.50;99.90;;;;;;5085711;28;20053;-79
2021/12/26 10:44:45;;;;;;;19.85;12.43;;;-0.40;99.90;;;;;;5067905;28;20045;-79
2021/12/26 10:47:21;;;;;;;19.85;12.80;;;-0.20;99.90;;;;;;5066588;28;20076;-79
2021/12/26 10:49:59;;;;;;;20.27;13.18;;;-0.10;99.90;;;;;;5083524;28;20127;-79
2021/12/26 10:52:29;;;;;;;19.00;13.52;;;-0.10;99.90;;;;;;5064716;28;20054;-79
2021/12/26 10:55:01;;;;;;;23.73;13.68;;;0.20;99.90;;;;;;5064417;28;20075;-79
2021/12/26 10:57:38;;;;;;;19.45;11.40;;;0.30;99.90;;;;;;5063999;28;20513;-79
2021/12/26 11:00:39;;;;;;;17.75;12.40;;;0.40;99.90;;;;;;5066679;28;20072;-79
2021/12/26 11:03:09;;;;;;;16.52;11.00;;;0.50;99.90;;;;;;5016391;28;20056;-79
2021/12/26 11:05:43;;;;;;;16.92;11.15;;;0.50;99.90;;;;;;5086649;28;20080;-79
2021/12/26 11:08:15;;;;;;;17.63;11.23;;;0.20;99.90;;;;;;5085273;28;20072;-79
2021/12/26 11:10:43;;;;;;;20.40;12.90;;;0.20;99.90;;;;;;5086464;28;20076;-79
2021/12/26 11:13:36;;;;;;;18.58;12.43;;;0.40;99.90;;;;;;5068164;28;20055;-79
2021/12/26 11:16:06;;;;;;;22.23;14.60;;;0.60;99.90;;;;;;5064298;28;20075;-80
2021/12/26 11:18:37;;;;;;;17.33;12.45;;;0.40;99.90;;;;;;5067407;28;20100;-80
2021/12/26 11:21:11;;;;;;;23.35;15.10;;;0.60;99.90;;;;;;5065678;28;20116;-80
2021/12/26 11:23:40;;;;;;;20.20;12.98;;;0.70;99.90;;;;;;5066767;28;20044;-80
2021/12/26 11:26:10;;;;;;;20.08;13.70;;;0.60;99.90;;;;;;5065833;28;20109;-80
2021/12/26 11:28:40;;;;;;;19.00;12.98;;;0.70;99.90;;;;;;5084992;28;20113;-80
2021/12/26 11:31:10;;;;;;;20.30;13.88;;;0.50;99.90;;;;;;5084754;28;20060;-80
2021/12/26 11:33:38;;;;;;;20.38;14.57;;;0.50;99.90;;;;;;5065860;28;20044;-80
2021/12/26 11:36:08;;;;;;;24.00;14.70;;;0.10;99.90;;;;;;5066904;28;20135;-80
2021/12/26 11:38:34;;;;;;;22.05;14.32;;;0.00;99.90;;;;;;5086172;28;20079;-80
2021/12/26 11:41:05;;;;;;;24.42;14.80;;;-0.10;99.90;;;;;;5085599;28;20045;-80
2021/12/26 11:43:43;;;;;;;20.30;13.82;;;-0.20;99.90;;;;;;5066895;28;20053;-80
2021/12/26 11:46:39;;;;;;;20.13;13.50;;;0.00;99.90;;;;;;5084406;28;20048;-80
2021/12/26 11:49:19;;;;;;;24.90;14.13;;;0.30;99.90;;;;;;5065003;28;20063;-80
2021/12/26 11:52:22;;;;;;;22.88;13.65;;;0.30;99.90;;;;;;5081884;28;20508;-80
2021/12/26 11:55:09;;;;;;;21.55;13.85;;;0.30;99.90;;;;;;5026214;28;20091;-80
2021/12/26 11:58:09;;;;;;;19.65;14.07;;;0.50;99.90;;;;;;5063815;28;20503;-80
2021/12/26 12:00:46;;;;;;;23.90;15.32;;;0.60;99.90;;;;;;5062155;28;20080;-80
2021/12/26 12:03:19;;;;;;;26.67;16.15;;;0.40;99.90;;;;;;5082009;28;20058;-81
2021/12/26 12:05:47;;;;;;;25.95;15.75;;;0.10;99.90;;;;;;5063576;28;20072;-80
2021/12/26 12:08:16;;;;;;;22.73;15.75;;;0.30;99.90;;;;;;5063213;28;20076;-81
2021/12/26 12:10:57;;;;;;;26.20;15.10;;;0.20;99.90;;;;;;5062880;28;20071;-80
2021/12/26 12:13:27;;;;;;;27.55;17.23;;;0.00;99.90;;;;;;5062168;28;20048;-81
2021/12/26 12:16:05;;;;;;;24.25;14.73;;;-0.20;99.90;;;;;;5079931;28;20075;-81
2021/12/26 12:18:33;;;;;;;26.35;15.88;;;-0.30;99.90;;;;;;5079863;28;20441;-80
2021/12/26 12:21:19;;;;;;;32.05;21.02;;;-0.30;99.90;;;;;;5078046;28;20048;-80
2021/12/26 12:24:07;;;;;;;30.27;16.20;;;-0.20;99.90;;;;;;5076684;28;20477;-80
2021/12/26 12:26:41;;;;;;;27.98;17.40;;;-0.20;99.90;;;;;;5076623;28;20052;-80
2021/12/26 12:29:10;;;;;;;29.83;18.10;;;-0.30;99.90;;;;;;5057335;28;20072;-80
2021/12/26 12:31:37;;;;;;;28.77;18.02;;;-0.30;99.90;;;;;;5075214;28;20580;-80
2021/12/26 12:34:11;;;;;;;29.20;18.48;;;-0.20;99.90;;;;;;5057273;28;20131;-80
2021/12/26 12:36:41;;;;;;;25.70;16.00;;;-0.30;99.90;;;;;;5075000;28;20049;-79
2021/12/26 12:39:18;;;;;;;28.08;17.45;;;-0.20;99.90;;;;;;5077191;28;20493;-79
2021/12/26 12:41:52;;;;;;;29.48;17.23;;;-0.10;99.90;;;;;;5058276;28;20127;-80
2021/12/26 12:44:31;;;;;;;31.17;18.13;;;-0.20;99.90;;;;;;5076375;28;20041;-80